sensor_id;sensor_type;location;lat;lon;timestamp;P1;durP1;ratioP1;P2;durP2;ratioP2
20348;SDS011;10332;50.208;18.988;2023-03-01T00:01:43;125.47;;;57.27;;
20348;SDS011;10332;50.208;18.988;2023-03-01T00:04:10;126.23;;;55.63;;
20348;SDS011;10332;50.208;18.988;2023-03-01T00:06:38;123.17;;;53.20;;
20348;SDS011;10332;50.208;18.988;2023-03-01T00:09:05;160.50;;;67.73;;
20348;SDS011;10332;50.208;18.988;2023-03-01T00:11:33;127.23;;;54.27;;
20348;SDS011;10332;50.208;18.988;2023-03-01T00:14:01;148.20;;;64.30;;
20348;SDS011;10332;50.208;18.988;2023-03-01T00:16:49;150.57;;;64.63;;
20348;SDS011;10332;50.208;18.988;2023-03-01T00:19:17;150.00;;;63.70;;
20348;SDS011;10332;50.208;18.988;2023-03-01T00:21:46;159.27;;;65.70;;
20348;SDS011;10332;50.208;18.988;2023-03-01T00:24:14;142.17;;;62.20;;
20348;SDS011;10332;50.208;18.988;2023-03-01T00:26:42;138.97;;;62.47;;
20348;SDS011;10332;50.208;18.988;2023-03-01T00:29:10;141.33;;;60.73;;
20348;SDS011;10332;50.208;18.988;2023-03-01T00:31:38;128.27;;;55.77;;
20348;SDS011;10332;50.208;18.988;2023-03-01T00:34:05;125.70;;;55.37;;
20348;SDS011;10332;50.208;18.988;2023-03-01T00:36:34;128.63;;;55.57;;
20348;SDS011;10332;50.208;18.988;2023-03-01T00:39:05;123.63;;;54.23;;
20348;SDS011;10332;50.208;18.988;2023-03-01T00:41:38;136.53;;;59.37;;
20348;SDS011;10332;50.208;18.988;2023-03-01T00:44:06;143.83;;;60.57;;
20348;SDS011;10332;50.208;18.988;2023-03-01T00:46:34;131.63;;;55.80;;
20348;SDS011;10332;50.208;18.988;2023-03-01T00:49:01;126.03;;;56.37;;
20348;SDS011;10332;50.208;18.988;2023-03-01T00:51:31;133.33;;;57.90;;
20348;SDS011;10332;50.208;18.988;2023-03-01T00:54:00;134.83;;;57.90;;
20348;SDS011;10332;50.208;18.988;2023-03-01T00:56:29;139.60;;;58.83;;
20348;SDS011;10332;50.208;18.988;2023-03-01T00:58:58;140.57;;;58.67;;
20348;SDS011;10332;50.208;18.988;2023-03-01T01:01:27;143.27;;;61.93;;
20348;SDS011;10332;50.208;18.988;2023-03-01T01:03:58;139.63;;;58.47;;
20348;SDS011;10332;50.208;18.988;2023-03-01T01:06:30;131.43;;;55.07;;
20348;SDS011;10332;50.208;18.988;2023-03-01T01:09:04;142.20;;;60.20;;
20348;SDS011;10332;50.208;18.988;2023-03-01T01:11:34;139.60;;;61.47;;
20348;SDS011;10332;50.208;18.988;2023-03-01T01:14:02;145.23;;;63.93;;
20348;SDS011;10332;50.208;18.988;2023-03-01T01:16:31;135.87;;;60.67;;
20348;SDS011;10332;50.208;18.988;2023-03-01T01:18:59;145.87;;;61.90;;
20348;SDS011;10332;50.208;18.988;2023-03-01T01:21:27;124.63;;;56.23;;
20348;SDS011;10332;50.208;18.988;2023-03-01T01:23:55;122.70;;;54.47;;
20348;SDS011;10332;50.208;18.988;2023-03-01T01:26:28;140.37;;;59.97;;
20348;SDS011;10332;50.208;18.988;2023-03-01T01:28:59;134.07;;;61.10;;
20348;SDS011;10332;50.208;18.988;2023-03-01T01:31:30;126.47;;;56.67;;
20348;SDS011;10332;50.208;18.988;2023-03-01T01:34:00;121.23;;;54.30;;
20348;SDS011;10332;50.208;18.988;2023-03-01T01:36:30;120.00;;;53.03;;
20348;SDS011;10332;50.208;18.988;2023-03-01T01:38:58;123.30;;;54.93;;
20348;SDS011;10332;50.208;18.988;2023-03-01T01:41:27;116.50;;;52.10;;
20348;SDS011;10332;50.208;18.988;2023-03-01T01:44:10;122.57;;;54.07;;
20348;SDS011;10332;50.208;18.988;2023-03-01T01:47:06;120.20;;;53.43;;
20348;SDS011;10332;50.208;18.988;2023-03-01T01:49:46;115.20;;;52.80;;
20348;SDS011;10332;50.208;18.988;2023-03-01T01:54:55;129.57;;;55.80;;
20348;SDS011;10332;50.208;18.988;2023-03-01T01:57:53;118.27;;;53.17;;
20348;SDS011;10332;50.208;18.988;2023-03-01T02:00:24;121.03;;;56.17;;
20348;SDS011;10332;50.208;18.988;2023-03-01T02:03:02;125.83;;;58.13;;
20348;SDS011;10332;50.208;18.988;2023-03-01T02:08:33;131.93;;;58.17;;
20348;SDS011;10332;50.208;18.988;2023-03-01T02:11:05;113.37;;;51.67;;
20348;SDS011;10332;50.208;18.988;2023-03-01T02:13:35;127.07;;;55.47;;
20348;SDS011;10332;50.208;18.988;2023-03-01T02:16:09;137.57;;;60.47;;
20348;SDS011;10332;50.208;18.988;2023-03-01T02:18:41;141.60;;;61.33;;
20348;SDS011;10332;50.208;18.988;2023-03-01T02:23:40;120.73;;;54.70;;
20348;SDS011;10332;50.208;18.988;2023-03-01T02:28:45;135.10;;;58.67;;
20348;SDS011;10332;50.208;18.988;2023-03-01T02:31:14;132.00;;;59.93;;
20348;SDS011;10332;50.208;18.988;2023-03-01T02:34:04;128.17;;;57.10;;
20348;SDS011;10332;50.208;18.988;2023-03-01T02:36:35;120.00;;;52.30;;
20348;SDS011;10332;50.208;18.988;2023-03-01T02:39:07;111.93;;;50.93;;
20348;SDS011;10332;50.208;18.988;2023-03-01T02:41:44;136.73;;;59.03;;
20348;SDS011;10332;50.208;18.988;2023-03-01T02:44:18;131.93;;;59.20;;
20348;SDS011;10332;50.208;18.988;2023-03-01T02:46:48;150.07;;;68.03;;
20348;SDS011;10332;50.208;18.988;2023-03-01T02:49:24;161.20;;;67.07;;
20348;SDS011;10332;50.208;18.988;2023-03-01T02:52:22;154.60;;;66.63;;
20348;SDS011;10332;50.208;18.988;2023-03-01T02:57:36;142.00;;;60.13;;
20348;SDS011;10332;50.208;18.988;2023-03-01T03:00:09;179.10;;;79.23;;
20348;SDS011;10332;50.208;18.988;2023-03-01T03:02:46;166.07;;;70.53;;
20348;SDS011;10332;50.208;18.988;2023-03-01T03:05:18;153.83;;;69.77;;
20348;SDS011;10332;50.208;18.988;2023-03-01T03:07:54;149.73;;;66.23;;
20348;SDS011;10332;50.208;18.988;2023-03-01T03:10:23;144.63;;;66.37;;
20348;SDS011;10332;50.208;18.988;2023-03-01T03:12:58;166.00;;;72.23;;
20348;SDS011;10332;50.208;18.988;2023-03-01T03:15:29;166.20;;;71.00;;
20348;SDS011;10332;50.208;18.988;2023-03-01T03:17:57;163.23;;;72.40;;
20348;SDS011;10332;50.208;18.988;2023-03-01T03:20:26;142.03;;;63.17;;
20348;SDS011;10332;50.208;18.988;2023-03-01T03:22:55;167.43;;;70.10;;
20348;SDS011;10332;50.208;18.988;2023-03-01T03:25:28;144.87;;;65.53;;
20348;SDS011;10332;50.208;18.988;2023-03-01T03:27:56;153.73;;;65.87;;
20348;SDS011;10332;50.208;18.988;2023-03-01T03:30:26;149.57;;;64.77;;
20348;SDS011;10332;50.208;18.988;2023-03-01T03:32:58;149.87;;;64.60;;
20348;SDS011;10332;50.208;18.988;2023-03-01T03:38:07;122.03;;;55.70;;
20348;SDS011;10332;50.208;18.988;2023-03-01T03:40:43;124.17;;;51.80;;
20348;SDS011;10332;50.208;18.988;2023-03-01T03:43:21;129.43;;;56.07;;
20348;SDS011;10332;50.208;18.988;2023-03-01T03:45:50;139.17;;;59.43;;
20348;SDS011;10332;50.208;18.988;2023-03-01T03:48:18;136.10;;;58.70;;
20348;SDS011;10332;50.208;18.988;2023-03-01T03:50:47;138.90;;;58.43;;
20348;SDS011;10332;50.208;18.988;2023-03-01T03:53:17;134.93;;;59.73;;
20348;SDS011;10332;50.208;18.988;2023-03-01T03:55:47;128.23;;;55.67;;
20348;SDS011;10332;50.208;18.988;2023-03-01T03:58:18;121.07;;;54.30;;
20348;SDS011;10332;50.208;18.988;2023-03-01T04:00:50;140.67;;;61.70;;
20348;SDS011;10332;50.208;18.988;2023-03-01T04:03:23;146.83;;;65.00;;
20348;SDS011;10332;50.208;18.988;2023-03-01T04:05:53;147.03;;;62.77;;
20348;SDS011;10332;50.208;18.988;2023-03-01T04:08:21;140.00;;;60.37;;
20348;SDS011;10332;50.208;18.988;2023-03-01T04:10:51;143.73;;;59.87;;
20348;SDS011;10332;50.208;18.988;2023-03-01T04:13:24;127.60;;;59.37;;
20348;SDS011;10332;50.208;18.988;2023-03-01T04:15:52;136.57;;;59.83;;
20348;SDS011;10332;50.208;18.988;2023-03-01T04:18:22;122.53;;;53.47;;
20348;SDS011;10332;50.208;18.988;2023-03-01T04:20:52;139.17;;;58.90;;
20348;SDS011;10332;50.208;18.988;2023-03-01T04:23:21;129.63;;;56.17;;
20348;SDS011;10332;50.208;18.988;2023-03-01T04:25:50;129.03;;;56.10;;
20348;SDS011;10332;50.208;18.988;2023-03-01T04:28:21;122.17;;;52.53;;
20348;SDS011;10332;50.208;18.988;2023-03-01T04:31:05;134.20;;;59.57;;
20348;SDS011;10332;50.208;18.988;2023-03-01T04:33:44;123.83;;;54.53;;
20348;SDS011;10332;50.208;18.988;2023-03-01T04:36:19;131.77;;;58.30;;
20348;SDS011;10332;50.208;18.988;2023-03-01T04:38:53;130.00;;;55.87;;
20348;SDS011;10332;50.208;18.988;2023-03-01T04:41:23;133.30;;;55.10;;
20348;SDS011;10332;50.208;18.988;2023-03-01T04:43:51;130.13;;;56.00;;
20348;SDS011;10332;50.208;18.988;2023-03-01T04:46:19;119.87;;;52.87;;
20348;SDS011;10332;50.208;18.988;2023-03-01T04:48:55;109.97;;;47.43;;
20348;SDS011;10332;50.208;18.988;2023-03-01T04:51:23;120.17;;;54.53;;
20348;SDS011;10332;50.208;18.988;2023-03-01T04:53:50;135.60;;;56.97;;
20348;SDS011;10332;50.208;18.988;2023-03-01T04:56:18;124.90;;;54.93;;
20348;SDS011;10332;50.208;18.988;2023-03-01T04:58:45;128.63;;;55.60;;
20348;SDS011;10332;50.208;18.988;2023-03-01T05:01:14;125.03;;;54.43;;
20348;SDS011;10332;50.208;18.988;2023-03-01T05:03:49;120.17;;;53.50;;
20348;SDS011;10332;50.208;18.988;2023-03-01T05:06:19;107.03;;;48.77;;
20348;SDS011;10332;50.208;18.988;2023-03-01T05:08:47;115.80;;;49.47;;
20348;SDS011;10332;50.208;18.988;2023-03-01T05:11:15;129.63;;;54.07;;
20348;SDS011;10332;50.208;18.988;2023-03-01T05:13:43;111.70;;;49.73;;
20348;SDS011;10332;50.208;18.988;2023-03-01T05:16:10;103.77;;;46.57;;
20348;SDS011;10332;50.208;18.988;2023-03-01T05:18:39;110.67;;;47.63;;
20348;SDS011;10332;50.208;18.988;2023-03-01T05:21:09;103.90;;;46.97;;
20348;SDS011;10332;50.208;18.988;2023-03-01T05:23:39;102.20;;;47.33;;
20348;SDS011;10332;50.208;18.988;2023-03-01T05:26:07;120.90;;;52.13;;
20348;SDS011;10332;50.208;18.988;2023-03-01T05:28:52;102.83;;;47.03;;
20348;SDS011;10332;50.208;18.988;2023-03-01T05:31:26;119.07;;;52.57;;
20348;SDS011;10332;50.208;18.988;2023-03-01T05:33:53;114.20;;;49.53;;
20348;SDS011;10332;50.208;18.988;2023-03-01T05:36:21;121.07;;;54.13;;
20348;SDS011;10332;50.208;18.988;2023-03-01T05:38:49;124.40;;;53.63;;
20348;SDS011;10332;50.208;18.988;2023-03-01T05:41:16;97.97;;;44.70;;
20348;SDS011;10332;50.208;18.988;2023-03-01T05:43:43;109.13;;;47.43;;
20348;SDS011;10332;50.208;18.988;2023-03-01T05:46:11;105.77;;;46.43;;
20348;SDS011;10332;50.208;18.988;2023-03-01T05:48:41;101.00;;;46.00;;
20348;SDS011;10332;50.208;18.988;2023-03-01T05:51:10;98.73;;;45.57;;
20348;SDS011;10332;50.208;18.988;2023-03-01T05:53:38;104.27;;;47.30;;
20348;SDS011;10332;50.208;18.988;2023-03-01T05:56:06;126.50;;;55.93;;
20348;SDS011;10332;50.208;18.988;2023-03-01T05:58:33;107.53;;;49.53;;
20348;SDS011;10332;50.208;18.988;2023-03-01T06:01:01;110.33;;;51.13;;
20348;SDS011;10332;50.208;18.988;2023-03-01T06:03:28;119.43;;;54.00;;
20348;SDS011;10332;50.208;18.988;2023-03-01T06:05:56;115.97;;;53.57;;
20348;SDS011;10332;50.208;18.988;2023-03-01T06:08:24;110.23;;;52.17;;
20348;SDS011;10332;50.208;18.988;2023-03-01T06:10:54;137.30;;;58.70;;
20348;SDS011;10332;50.208;18.988;2023-03-01T06:13:21;125.33;;;55.30;;
20348;SDS011;10332;50.208;18.988;2023-03-01T06:15:50;140.07;;;61.10;;
20348;SDS011;10332;50.208;18.988;2023-03-01T06:18:18;135.03;;;59.03;;
20348;SDS011;10332;50.208;18.988;2023-03-01T06:20:52;152.00;;;67.03;;
20348;SDS011;10332;50.208;18.988;2023-03-01T06:23:21;121.10;;;52.17;;
20348;SDS011;10332;50.208;18.988;2023-03-01T06:25:50;113.70;;;48.43;;
20348;SDS011;10332;50.208;18.988;2023-03-01T06:28:19;103.00;;;44.83;;
20348;SDS011;10332;50.208;18.988;2023-03-01T06:30:47;93.07;;;44.23;;
20348;SDS011;10332;50.208;18.988;2023-03-01T06:33:15;100.97;;;46.67;;
20348;SDS011;10332;50.208;18.988;2023-03-01T06:35:43;83.87;;;38.67;;
20348;SDS011;10332;50.208;18.988;2023-03-01T06:38:10;80.47;;;40.17;;
20348;SDS011;10332;50.208;18.988;2023-03-01T06:40:38;82.80;;;40.70;;
20348;SDS011;10332;50.208;18.988;2023-03-01T06:43:05;118.27;;;52.13;;
20348;SDS011;10332;50.208;18.988;2023-03-01T06:45:34;122.13;;;54.63;;
20348;SDS011;10332;50.208;18.988;2023-03-01T06:48:02;106.07;;;50.50;;
20348;SDS011;10332;50.208;18.988;2023-03-01T06:50:34;98.43;;;46.93;;
20348;SDS011;10332;50.208;18.988;2023-03-01T06:53:02;100.77;;;47.90;;
20348;SDS011;10332;50.208;18.988;2023-03-01T06:55:30;98.47;;;47.00;;
20348;SDS011;10332;50.208;18.988;2023-03-01T06:57:58;107.07;;;50.53;;
20348;SDS011;10332;50.208;18.988;2023-03-01T07:00:28;101.93;;;48.20;;
20348;SDS011;10332;50.208;18.988;2023-03-01T07:03:00;92.77;;;44.80;;
20348;SDS011;10332;50.208;18.988;2023-03-01T07:05:29;98.07;;;47.27;;
20348;SDS011;10332;50.208;18.988;2023-03-01T07:07:57;91.10;;;44.13;;
20348;SDS011;10332;50.208;18.988;2023-03-01T07:10:25;99.40;;;48.27;;
20348;SDS011;10332;50.208;18.988;2023-03-01T07:12:59;96.87;;;46.90;;
20348;SDS011;10332;50.208;18.988;2023-03-01T07:15:27;100.77;;;48.60;;
20348;SDS011;10332;50.208;18.988;2023-03-01T07:17:55;94.70;;;44.10;;
20348;SDS011;10332;50.208;18.988;2023-03-01T07:20:23;94.20;;;43.07;;
20348;SDS011;10332;50.208;18.988;2023-03-01T07:22:52;82.67;;;38.97;;
20348;SDS011;10332;50.208;18.988;2023-03-01T07:25:21;73.57;;;36.77;;
20348;SDS011;10332;50.208;18.988;2023-03-01T07:27:50;73.03;;;35.20;;
20348;SDS011;10332;50.208;18.988;2023-03-01T07:30:19;64.87;;;32.40;;
20348;SDS011;10332;50.208;18.988;2023-03-01T07:32:49;84.17;;;40.17;;
20348;SDS011;10332;50.208;18.988;2023-03-01T07:35:16;78.67;;;38.70;;
20348;SDS011;10332;50.208;18.988;2023-03-01T07:37:44;77.97;;;37.73;;
20348;SDS011;10332;50.208;18.988;2023-03-01T07:40:12;84.10;;;39.87;;
20348;SDS011;10332;50.208;18.988;2023-03-01T07:42:40;84.90;;;40.37;;
20348;SDS011;10332;50.208;18.988;2023-03-01T07:45:07;60.10;;;30.13;;
20348;SDS011;10332;50.208;18.988;2023-03-01T07:47:35;65.93;;;30.10;;
20348;SDS011;10332;50.208;18.988;2023-03-01T07:50:03;49.70;;;25.70;;
20348;SDS011;10332;50.208;18.988;2023-03-01T07:52:31;44.00;;;23.23;;
20348;SDS011;10332;50.208;18.988;2023-03-01T07:54:59;47.07;;;22.30;;
20348;SDS011;10332;50.208;18.988;2023-03-01T07:57:26;44.78;;;23.50;;
20348;SDS011;10332;50.208;18.988;2023-03-01T07:59:54;43.57;;;23.73;;
20348;SDS011;10332;50.208;18.988;2023-03-01T08:02:21;41.20;;;22.43;;
20348;SDS011;10332;50.208;18.988;2023-03-01T08:04:49;32.80;;;19.17;;
20348;SDS011;10332;50.208;18.988;2023-03-01T08:07:16;34.95;;;18.77;;
20348;SDS011;10332;50.208;18.988;2023-03-01T08:09:44;37.17;;;21.50;;
20348;SDS011;10332;50.208;18.988;2023-03-01T08:12:11;35.88;;;21.27;;
20348;SDS011;10332;50.208;18.988;2023-03-01T08:14:39;33.08;;;19.70;;
20348;SDS011;10332;50.208;18.988;2023-03-01T08:17:06;28.50;;;17.67;;
20348;SDS011;10332;50.208;18.988;2023-03-01T08:19:34;31.33;;;18.30;;
20348;SDS011;10332;50.208;18.988;2023-03-01T08:22:01;29.45;;;19.25;;
20348;SDS011;10332;50.208;18.988;2023-03-01T08:24:29;31.30;;;20.42;;
20348;SDS011;10332;50.208;18.988;2023-03-01T08:26:57;28.48;;;18.35;;
20348;SDS011;10332;50.208;18.988;2023-03-01T08:29:24;31.08;;;19.17;;
20348;SDS011;10332;50.208;18.988;2023-03-01T08:31:52;27.27;;;18.08;;
20348;SDS011;10332;50.208;18.988;2023-03-01T08:34:19;31.77;;;21.02;;
20348;SDS011;10332;50.208;18.988;2023-03-01T08:36:47;32.25;;;21.08;;
20348;SDS011;10332;50.208;18.988;2023-03-01T08:39:15;31.70;;;21.40;;
20348;SDS011;10332;50.208;18.988;2023-03-01T08:41:46;32.38;;;21.48;;
20348;SDS011;10332;50.208;18.988;2023-03-01T08:44:14;42.47;;;28.15;;
20348;SDS011;10332;50.208;18.988;2023-03-01T08:46:43;51.38;;;36.83;;
20348;SDS011;10332;50.208;18.988;2023-03-01T08:49:21;34.47;;;24.27;;
20348;SDS011;10332;50.208;18.988;2023-03-01T08:51:49;29.85;;;20.95;;
20348;SDS011;10332;50.208;18.988;2023-03-01T08:54:17;28.23;;;19.90;;
20348;SDS011;10332;50.208;18.988;2023-03-01T08:56:48;23.77;;;16.65;;
20348;SDS011;10332;50.208;18.988;2023-03-01T08:59:17;22.55;;;16.58;;
20348;SDS011;10332;50.208;18.988;2023-03-01T09:01:45;21.00;;;15.70;;
20348;SDS011;10332;50.208;18.988;2023-03-01T09:04:14;22.08;;;15.90;;
20348;SDS011;10332;50.208;18.988;2023-03-01T09:06:42;27.40;;;17.25;;
20348;SDS011;10332;50.208;18.988;2023-03-01T09:09:12;24.17;;;17.35;;
20348;SDS011;10332;50.208;18.988;2023-03-01T09:11:43;27.30;;;18.10;;
20348;SDS011;10332;50.208;18.988;2023-03-01T09:14:16;22.65;;;16.63;;
20348;SDS011;10332;50.208;18.988;2023-03-01T09:16:44;24.77;;;17.85;;
20348;SDS011;10332;50.208;18.988;2023-03-01T09:19:12;31.15;;;20.02;;
20348;SDS011;10332;50.208;18.988;2023-03-01T09:21:39;26.92;;;18.15;;
20348;SDS011;10332;50.208;18.988;2023-03-01T09:24:16;24.85;;;16.92;;
20348;SDS011;10332;50.208;18.988;2023-03-01T09:26:48;23.75;;;16.23;;
20348;SDS011;10332;50.208;18.988;2023-03-01T09:29:17;21.48;;;15.60;;
20348;SDS011;10332;50.208;18.988;2023-03-01T09:31:44;20.30;;;14.88;;
20348;SDS011;10332;50.208;18.988;2023-03-01T09:34:12;22.70;;;17.90;;
20348;SDS011;10332;50.208;18.988;2023-03-01T09:36:42;22.85;;;16.77;;
20348;SDS011;10332;50.208;18.988;2023-03-01T09:39:10;23.90;;;18.08;;
20348;SDS011;10332;50.208;18.988;2023-03-01T09:44:43;26.13;;;18.38;;
20348;SDS011;10332;50.208;18.988;2023-03-01T09:47:22;24.98;;;18.73;;
20348;SDS011;10332;50.208;18.988;2023-03-01T09:52:36;27.45;;;20.38;;
20348;SDS011;10332;50.208;18.988;2023-03-01T09:55:15;28.73;;;21.25;;
20348;SDS011;10332;50.208;18.988;2023-03-01T10:10:17;24.38;;;17.42;;
20348;SDS011;10332;50.208;18.988;2023-03-01T10:13:02;23.45;;;18.77;;
20348;SDS011;10332;50.208;18.988;2023-03-01T10:16:04;20.30;;;16.20;;
20348;SDS011;10332;50.208;18.988;2023-03-01T10:19:02;25.05;;;19.15;;
20348;SDS011;10332;50.208;18.988;2023-03-01T10:21:33;23.65;;;18.27;;
20348;SDS011;10332;50.208;18.988;2023-03-01T10:24:10;20.85;;;17.88;;
20348;SDS011;10332;50.208;18.988;2023-03-01T10:26:55;22.10;;;18.58;;
20348;SDS011;10332;50.208;18.988;2023-03-01T10:29:30;25.75;;;19.10;;
20348;SDS011;10332;50.208;18.988;2023-03-01T10:32:09;22.67;;;19.50;;
20348;SDS011;10332;50.208;18.988;2023-03-01T10:34:38;24.33;;;21.30;;
20348;SDS011;10332;50.208;18.988;2023-03-01T10:37:23;21.45;;;18.40;;
20348;SDS011;10332;50.208;18.988;2023-03-01T10:39:58;23.98;;;19.60;;
20348;SDS011;10332;50.208;18.988;2023-03-01T10:48:23;25.50;;;20.88;;
20348;SDS011;10332;50.208;18.988;2023-03-01T10:53:33;24.55;;;20.35;;
20348;SDS011;10332;50.208;18.988;2023-03-01T10:58:37;27.08;;;22.30;;
20348;SDS011;10332;50.208;18.988;2023-03-01T11:06:33;27.02;;;23.05;;
20348;SDS011;10332;50.208;18.988;2023-03-01T11:09:18;27.95;;;23.52;;
20348;SDS011;10332;50.208;18.988;2023-03-01T11:11:52;23.35;;;19.90;;
20348;SDS011;10332;50.208;18.988;2023-03-01T11:14:26;29.45;;;25.08;;
20348;SDS011;10332;50.208;18.988;2023-03-01T11:17:04;30.50;;;23.92;;
20348;SDS011;10332;50.208;18.988;2023-03-01T11:19:38;27.95;;;22.70;;
20348;SDS011;10332;50.208;18.988;2023-03-01T11:22:12;27.90;;;20.98;;
20348;SDS011;10332;50.208;18.988;2023-03-01T11:24:47;21.65;;;19.25;;
20348;SDS011;10332;50.208;18.988;2023-03-01T11:27:36;20.17;;;17.25;;
20348;SDS011;10332;50.208;18.988;2023-03-01T11:33:01;22.50;;;18.95;;
20348;SDS011;10332;50.208;18.988;2023-03-01T11:39:12;23.25;;;19.05;;
20348;SDS011;10332;50.208;18.988;2023-03-01T11:42:06;23.23;;;20.13;;
20348;SDS011;10332;50.208;18.988;2023-03-01T11:45:10;24.23;;;19.90;;
20348;SDS011;10332;50.208;18.988;2023-03-01T12:23:07;19.92;;;17.33;;
20348;SDS011;10332;50.208;18.988;2023-03-01T12:28:51;20.25;;;17.75;;
20348;SDS011;10332;50.208;18.988;2023-03-01T12:31:59;21.63;;;17.83;;
20348;SDS011;10332;50.208;18.988;2023-03-01T12:34:46;20.20;;;17.90;;
20348;SDS011;10332;50.208;18.988;2023-03-01T12:37:56;18.13;;;16.27;;
20348;SDS011;10332;50.208;18.988;2023-03-01T12:52:49;19.45;;;17.30;;
20348;SDS011;10332;50.208;18.988;2023-03-01T12:58:45;18.92;;;16.85;;
20348;SDS011;10332;50.208;18.988;2023-03-01T13:04:37;19.05;;;15.80;;
20348;SDS011;10332;50.208;18.988;2023-03-01T13:07:30;17.20;;;15.18;;
20348;SDS011;10332;50.208;18.988;2023-03-01T13:10:33;18.60;;;16.42;;
20348;SDS011;10332;50.208;18.988;2023-03-01T13:13:27;15.68;;;13.80;;
20348;SDS011;10332;50.208;18.988;2023-03-01T13:15:55;18.23;;;16.17;;
20348;SDS011;10332;50.208;18.988;2023-03-01T13:18:44;20.15;;;15.50;;
20348;SDS011;10332;50.208;18.988;2023-03-01T13:21:11;19.00;;;15.40;;
20348;SDS011;10332;50.208;18.988;2023-03-01T13:23:39;21.83;;;19.52;;
20348;SDS011;10332;50.208;18.988;2023-03-01T13:26:15;18.88;;;16.65;;
20348;SDS011;10332;50.208;18.988;2023-03-01T13:44:26;19.95;;;16.50;;
20348;SDS011;10332;50.208;18.988;2023-03-01T13:49:55;17.98;;;15.18;;
20348;SDS011;10332;50.208;18.988;2023-03-01T13:58:33;15.13;;;13.48;;
20348;SDS011;10332;50.208;18.988;2023-03-01T14:01:21;16.08;;;14.27;;
20348;SDS011;10332;50.208;18.988;2023-03-01T14:03:58;14.13;;;12.63;;
20348;SDS011;10332;50.208;18.988;2023-03-01T14:06:28;14.75;;;12.40;;
20348;SDS011;10332;50.208;18.988;2023-03-01T14:09:01;16.25;;;14.57;;
20348;SDS011;10332;50.208;18.988;2023-03-01T14:14:46;15.32;;;13.30;;
20348;SDS011;10332;50.208;18.988;2023-03-01T14:20:17;16.52;;;12.88;;
20348;SDS011;10332;50.208;18.988;2023-03-01T14:22:59;17.67;;;13.63;;
20348;SDS011;10332;50.208;18.988;2023-03-01T14:25:36;16.48;;;14.32;;
20348;SDS011;10332;50.208;18.988;2023-03-01T14:30:47;16.75;;;13.60;;
20348;SDS011;10332;50.208;18.988;2023-03-01T14:41:16;17.00;;;14.32;;
20348;SDS011;10332;50.208;18.988;2023-03-01T14:43:52;15.27;;;13.50;;
20348;SDS011;10332;50.208;18.988;2023-03-01T14:46:31;15.18;;;12.80;;
20348;SDS011;10332;50.208;18.988;2023-03-01T14:51:43;16.60;;;13.40;;
20348;SDS011;10332;50.208;18.988;2023-03-01T14:56:54;15.00;;;12.55;;
20348;SDS011;10332;50.208;18.988;2023-03-01T14:59:27;19.75;;;15.45;;
20348;SDS011;10332;50.208;18.988;2023-03-01T15:01:56;24.27;;;17.90;;
20348;SDS011;10332;50.208;18.988;2023-03-01T15:04:25;20.95;;;15.60;;
20348;SDS011;10332;50.208;18.988;2023-03-01T15:06:55;22.92;;;14.68;;
20348;SDS011;10332;50.208;18.988;2023-03-01T15:09:32;21.05;;;15.25;;
20348;SDS011;10332;50.208;18.988;2023-03-01T15:14:56;23.17;;;15.38;;
20348;SDS011;10332;50.208;18.988;2023-03-01T15:17:37;21.52;;;15.82;;
20348;SDS011;10332;50.208;18.988;2023-03-01T15:20:07;20.45;;;15.18;;
20348;SDS011;10332;50.208;18.988;2023-03-01T15:22:48;22.10;;;15.77;;
20348;SDS011;10332;50.208;18.988;2023-03-01T15:25:19;22.75;;;15.75;;
20348;SDS011;10332;50.208;18.988;2023-03-01T15:27:57;25.67;;;16.85;;
20348;SDS011;10332;50.208;18.988;2023-03-01T15:30:32;20.33;;;15.25;;
20348;SDS011;10332;50.208;18.988;2023-03-01T15:33:25;30.45;;;20.92;;
20348;SDS011;10332;50.208;18.988;2023-03-01T15:35:59;31.67;;;20.88;;
20348;SDS011;10332;50.208;18.988;2023-03-01T15:41:05;27.73;;;19.02;;
20348;SDS011;10332;50.208;18.988;2023-03-01T15:44:26;27.65;;;17.30;;
20348;SDS011;10332;50.208;18.988;2023-03-01T15:50:26;26.60;;;17.73;;
20348;SDS011;10332;50.208;18.988;2023-03-01T15:53:00;30.30;;;19.75;;
20348;SDS011;10332;50.208;18.988;2023-03-01T15:55:33;26.80;;;18.52;;
20348;SDS011;10332;50.208;18.988;2023-03-01T15:58:05;26.70;;;16.75;;
20348;SDS011;10332;50.208;18.988;2023-03-01T16:00:39;31.52;;;19.42;;
20348;SDS011;10332;50.208;18.988;2023-03-01T16:03:24;29.42;;;19.15;;
20348;SDS011;10332;50.208;18.988;2023-03-01T16:05:52;31.60;;;20.05;;
20348;SDS011;10332;50.208;18.988;2023-03-01T16:08:20;31.48;;;20.90;;
20348;SDS011;10332;50.208;18.988;2023-03-01T16:10:48;34.95;;;22.50;;
20348;SDS011;10332;50.208;18.988;2023-03-01T16:13:18;33.58;;;21.80;;
20348;SDS011;10332;50.208;18.988;2023-03-01T16:15:46;35.40;;;22.70;;
20348;SDS011;10332;50.208;18.988;2023-03-01T16:18:14;35.17;;;22.70;;
20348;SDS011;10332;50.208;18.988;2023-03-01T16:20:41;36.65;;;23.75;;
20348;SDS011;10332;50.208;18.988;2023-03-01T16:23:10;42.88;;;26.33;;
20348;SDS011;10332;50.208;18.988;2023-03-01T16:25:38;48.20;;;29.17;;
20348;SDS011;10332;50.208;18.988;2023-03-01T16:28:06;68.88;;;37.88;;
20348;SDS011;10332;50.208;18.988;2023-03-01T16:30:38;58.25;;;35.05;;
20348;SDS011;10332;50.208;18.988;2023-03-01T16:33:07;68.43;;;37.60;;
20348;SDS011;10332;50.208;18.988;2023-03-01T16:35:55;76.38;;;41.75;;
20348;SDS011;10332;50.208;18.988;2023-03-01T16:38:23;87.43;;;45.40;;
20348;SDS011;10332;50.208;18.988;2023-03-01T16:40:51;89.78;;;49.72;;
20348;SDS011;10332;50.208;18.988;2023-03-01T16:43:19;100.80;;;55.50;;
20348;SDS011;10332;50.208;18.988;2023-03-01T16:45:47;83.30;;;46.75;;
20348;SDS011;10332;50.208;18.988;2023-03-01T16:48:15;81.78;;;41.80;;
20348;SDS011;10332;50.208;18.988;2023-03-01T16:50:42;85.00;;;43.80;;
20348;SDS011;10332;50.208;18.988;2023-03-01T16:53:10;81.57;;;41.03;;
20348;SDS011;10332;50.208;18.988;2023-03-01T16:55:37;73.78;;;38.47;;
20348;SDS011;10332;50.208;18.988;2023-03-01T16:58:12;68.38;;;35.08;;
20348;SDS011;10332;50.208;18.988;2023-03-01T17:00:39;55.03;;;29.52;;
20348;SDS011;10332;50.208;18.988;2023-03-01T17:03:07;38.22;;;22.45;;
20348;SDS011;10332;50.208;18.988;2023-03-01T17:05:34;36.08;;;19.50;;
20348;SDS011;10332;50.208;18.988;2023-03-01T17:08:02;33.00;;;18.40;;
20348;SDS011;10332;50.208;18.988;2023-03-01T17:10:30;32.00;;;18.23;;
20348;SDS011;10332;50.208;18.988;2023-03-01T17:12:59;32.55;;;19.00;;
20348;SDS011;10332;50.208;18.988;2023-03-01T17:15:27;33.83;;;17.00;;
20348;SDS011;10332;50.208;18.988;2023-03-01T17:17:54;30.52;;;16.50;;
20348;SDS011;10332;50.208;18.988;2023-03-01T17:20:22;31.60;;;17.08;;
20348;SDS011;10332;50.208;18.988;2023-03-01T17:22:49;35.70;;;18.85;;